Tiempo atmosférico en la estación meteorológica de Lanzarote Aeropuerto, Las Palmas (14 m.)



Fecha
DESCASC
Temp. máxima en grados centígrados (hora)
DESCASC
Temp. mínima en grados centígrados (hora)
DESCASC
Temp. media en grados centígrados
DESCASC
Racha de viento máxima en m/sg (hora)
DESCASC
Velocidad máxima media en intervalos de 10 minutos(hora)
DESCASC
Precipitaciones diarias en mm
DESCASC
Precipitaciones de 00:00 a 06:00 en mm
DESCASC
Precipitaciones de 06:00 a 12:00 en mm
DESCASC
Precipitaciones de 12:00 a 18:00 en mm
DESCASC
Precipitaciones de 18:00 a 24:00 en mm
DESCASC
21-05-2019 25.1 (14:00) 18.5 (23:59) 21.8 18.06 (17:30) 12.22 (17:50) -- 0 -- 0 0
16-05-2019 -- (--) -- (--) -- -- (--) -- (--) -- -- -- 0 0
10-05-2019 26.6 (14:30) 18.3 (00:00) 22.4 13.89 (14:10) 10.56 (18:00) 0 0 0 0 0
23-05-2019 25 (15:00) 17.8 (07:10) 21.4 18.61 (16:10) 13.89 (19:10) 0 0 0 0 0
22-05-2019 25.7 (14:40) 18.4 (02:40) 22.1 16.94 (02:30) 13.33 (10:20) 0 0 0 0 0
20-05-2019 24.7 (14:10) 18.1 (08:00) 21.4 16.11 (18:40) 13.33 (13:20) 0.8 0 0 0 0.8
19-05-2019 25.2 (14:20) 17.6 (00:00) 21.4 18.06 (16:00) 14.17 (16:00) 0 0 0 0 0
18-05-2019 25.5 (17:00) 16.6 (00:00) 21.1 16.39 (13:20) 12.78 (20:30) 0 0 0 0 0
17-05-2019 28.4 (14:40) 18.3 (00:00) 23.3 18.06 (19:30) 14.72 (19:30) 0 0 0 0 0
15-05-2019 27.6 (14:50) 17.3 (00:00) 22.4 11.39 (00:20) 8.33 (00:20) 0 0 0 0 0
14-05-2019 27.2 (14:50) 17.7 (00:00) 22.5 12.5 (10:40) 9.17 (18:10) 0 0 0 0 0
13-05-2019 30.5 (12:20) 17.9 (00:00) 24.2 13.89 (18:40) 10 (18:50) 0 0 0 0 0
12-05-2019 25.5 (19:00) 14.6 (00:00) 20.1 12.5 (22:00) 7.78 (22:00) 0 0 0 0 0
11-05-2019 27.3 (17:50) 17.6 (00:00) 22.4 13.89 (14:10) 8.89 (12:00) 0 0 0 0 0
26-04-2019 23.7 (15:20) 16.9 (00:00) 20.3 16.11 (15:40) 13.61 (18:30) 0 0 0 0 0
09-05-2019 25.9 (15:10) 16.3 (00:00) 21.1 12.78 (13:00) 9.44 (14:40) 0 0 0 0 0
08-05-2019 26.7 (15:10) 15.8 (00:00) 21.3 12.78 (11:30) 8.89 (09:30) 0 0 0 0 0
07-05-2019 26.4 (15:00) 16.1 (00:00) 21.3 13.33 (13:40) 9.17 (18:50) 0 0 0 0 0
06-05-2019 25.6 (15:50) 18 (00:00) 21.8 11.67 (18:50) 9.44 (19:20) 0 0 0 0 0
05-05-2019 23.1 (14:40) 17.5 (00:00) 20.3 11.67 (21:20) 8.33 (18:50) 0 0 0 0 0
04-05-2019 23.7 (13:50) 17.3 (00:00) 20.5 12.78 (16:30) 7.78 (19:20) 0 0 0 0 0
03-05-2019 23.8 (15:50) 15.5 (00:00) 19.6 15.28 (11:50) 8.61 (16:10) 0 0 0 0 0
02-05-2019 21.6 (15:40) 17.1 (07:30) 19.4 13.89 (15:10) 9.17 (18:40) 0 0 0 0 0
01-05-2019 23.6 (15:20) 16.9 (00:00) 20.3 18.61 (09:20) 14.17 (09:20) 0 0 0 0 0
30-04-2019 26.2 (14:20) 17.1 (00:00) 21.7 16.39 (10:20) 12.78 (10:20) 0 0 0 0 0
29-04-2019 25.8 (15:20) 16.8 (00:00) 21.3 14.44 (18:50) 10.56 (19:30) 0 0 0 0 0
28-04-2019 26.2 (15:00) 16.6 (00:00) 21.4 13.33 (20:20) 9.72 (19:20) 0 0 0 0 0
27-04-2019 24.4 (13:30) 16.2 (00:00) 20.3 15 (03:40) 11.39 (15:20) 0 0 0 0 0

Gráficas

Temp. máximas Temp. mínimas Temp. medias Precipitaciones Rachas de viento máximas Velocidades máximas media en intervalos de 10 minutos

Datos horarios

Fecha y hora oficial Temperatura (ºC) Velocidad del viento (km/h) Dirección del viento Racha (km/h) Dirección de racha Precipitación (mm) Presión (hPa) Tendencia (hPa) Humedad (%)
2019-05-25 23:00:00 19.5 28 Norte 41 Norte 0 1013.7 0.9 75
2019-05-25 22:00:00 19.5 27 Norte 41 Norte 0 1013.5 0.9 69
2019-05-25 21:00:00 19.5 27 Norte 48 Norte 0 1013.2 0.7 69
2019-05-25 20:00:00 20.8 28 Norte 46 Norte 0 1012.8 0.9 64
2019-05-25 19:00:00 21.2 29 Norte 54 Norte 0 1012.6 -0.3 62
2019-05-25 18:00:00 22.9 39 Norte 65 Noroeste 0 1012.5 -0.6 57
2019-05-25 17:00:00 23.3 44 Norte 59 Norte 0 1011.9 -1.7 55
2019-05-25 16:00:00 24.9 38 Norte 61 Norte 0 1012.9 -1.5 51
2019-05-25 15:00:00 25.1 44 Norte 52 Norte 0 1013.1 -1.6 50
2019-05-25 14:00:00 25.1 37 Norte 54 Norte 0 1013.6 -1 53
2019-05-25 13:00:00 24.5 35 Norte 55 Norte 0 1014.4 0.2 54
2019-05-25 12:00:00 23.7 38 Norte 52 Norte 0 1014.7 0.9 57
2019-05-25 11:00:00 22.8 37 Norte 54 Norte 0 1014.6 1.3 60
2019-05-25 10:00:00 20.8 41 Norte 52 Norte 0 1014.2 1 68
2019-05-25 09:00:00 19.7 36 Norte 52 Norte 0 1013.8 0.6 74
2019-05-25 08:00:00 18.9 37 Norte 58 Nordeste 0 1013.3 0.4 79
2019-05-25 07:00:00 18.5 30 Norte 48 Norte 0 1013.2 -0.1 80
2019-05-25 06:00:00 18.6 26 Norte 46 Norte 0 1013.2 0.5 85
2019-05-25 05:00:00 18.8 29 Norte 45 Norte 0 1012.9 -0.1 82
2019-05-25 04:00:00 18.5 28 Norte 59 Norte 0 1013.3 -0.2 83
2019-05-25 03:00:00 18.4 48 Norte 67 Norte 0 1012.7 -1 84
2019-05-25 02:00:00 18.3 48 Norte 63 Norte 0 1013 -0.1 84
2019-05-25 01:00:00 18.5 45 Norte 67 Norte 0 1013.5 0.7 84
2019-05-25 00:00:00 18.5 47 Norte 67 Norte 0 1013.7 1.2 84
2019-05-24 23:00:00 18.7 47 Norte 61 Norte 0 1013.1 1.3 84
2019-05-24 22:00:00 18.9 48 Norte 68 Norte 0 1012.8 0.9 81
2019-05-24 21:00:00 19.3 48 Norte 71 Norte 0 1012.5 0.4 80
2019-05-24 20:00:00 20.5 55 Norte 72 Norte 0 1011.8 -0.6 74
2019-05-24 19:00:00 22.1 51 Norte 72 Norte 0 1011.9 -0.6 69
2019-05-24 18:00:00 23.7 50 Norte 71 Norte 0 1012.1 -1.5 63
2019-05-24 17:00:00 25 51 Norte 71 Norte 0 1012.4 -1.5 57
2019-05-24 16:00:00 25.6 52 Norte 67 Norte 0 1012.5 -1.8 54
2019-05-24 15:00:00 25.9 44 Norte 59 Norte 0 1013.6 -0.8 55
2019-05-24 14:00:00 26.5 36 Norte 58 Norte 0 1013.9 -0.4 54
2019-05-24 13:00:00 26.4 40 Norte 59 Norte 0 1014.3 0.8 50
2019-05-24 12:00:00 25.4 44 Norte 58 Norte 0 1014.4 1.5 55
2019-05-24 11:00:00 24.2 42 Norte 59 Norte 0 1014.3 2.2 60
2019-05-24 10:00:00 22.5 45 Norte 65 Norte 0 1013.5 1.5 65
2019-05-24 09:00:00 20.8 51 Norte 68 Norte 0 1012.9 0.8 71
2019-05-24 08:00:00 18.8 46 Norte 63 Norte 0 1012.1 -0.5 84
2019-05-24 07:00:00 18.2 45 Norte 65 Norte 0 1012 -0.9 88
2019-05-24 06:00:00 18.1 40 Norte 55 Norte 0 1012.1 -0.9 88
2019-05-24 05:00:00 18.1 33 Norte 54 Noroeste 0 1012.6 -0.3 88
2019-05-24 04:00:00 18.4 33 Norte 52 Norte 0 1012.9 -0.1 85
2019-05-24 03:00:00 18.4 36 Norte 61 Norte 0 1013 -0.1 85
2019-05-24 02:00:00 18.6 43 Norte 65 Norte 0 1012.9 -0.6 84
2019-05-24 01:00:00 18.6 40 Norte 67 Norte 0 1013 -0.1 84
2019-05-24 00:00:00 18.6 40 Norte 59 Norte 0 1013.1 0.5 84
2019-05-23 23:00:00 18.7 39 Norte 61 Norte 0 1013.5 1 84
2019-05-23 22:00:00 18.8 40 Norte 59 Norte 0 1013.1 0.2 83
2019-05-23 21:00:00 19.3 44 Norte 65 Norte 0 1012.6 -0.5 80
2019-05-23 20:00:00 20.5 49 Norte 65 Norte 0 1012.5 -1 72
2019-05-23 19:00:00 22 43 Norte 65 Norte 0 1012.9 -1 66
2019-05-23 18:00:00 22.8 45 Norte 63 Norte 0 1013.1 -1 63
2019-05-23 17:00:00 23.6 39 Norte 67 Norte 0 1013.5 -0.7 59
2019-05-23 16:00:00 24.2 42 Norte 63 Norte 0 1013.9 -0.7 56
2019-05-23 15:00:00 24.7 44 Norte 61 Norte 0 1014.1 -0.7 53
2019-05-23 14:00:00 24.4 43 Norte 63 Norte 0 1014.2 -0.2 55
2019-05-23 13:00:00 23.7 42 Norte 65 Norte 0 1014.6 0 56
2019-05-23 12:00:00 23.3 38 Norte 61 Norte 0 1014.8 0.6 59
2019-05-23 11:00:00 21.9 44 Norte 61 Norte 0 1014.4 0.7 60
2019-05-23 10:00:00 21.2 41 Norte 55 Norte 0 1014.6 1 62
2019-05-23 09:00:00 20 34 Norte 54 Norte 0 1014.2 0.6 68
2019-05-23 08:00:00 18.7 37 Norte 50 Norte 0 1013.7 0 74
2019-05-23 07:00:00 18.1 31 Norte 48 Norte 0 1013.6 -0.1 74
2019-05-23 06:00:00 18.1 32 Norte 52 Norte 0 1013.6 -0.4 73
2019-05-23 05:00:00 18.1 26 Norte 54 Norte 0 1013.7 -0.7 75
2019-05-23 04:00:00 18.5 31 Norte 55 Norte 0 1013.7 -1.1 73
2019-05-23 03:00:00 18.4 37 Norte 58 Norte 0 1014 -1 71
2019-05-23 02:00:00 18.6 35 Norte 52 Norte 0 1014.4 -0.8 72
2019-05-23 01:00:00 18.7 36 Norte 58 Norte 0 1014.8 0.2 73
2019-05-23 00:00:00 18.8 38 Norte 54 Norte 0 1015 0.8 71
2019-05-22 23:00:00 19 41 Norte 54 Norte 0 1015.2 1.1 75
2019-05-22 22:00:00 19.3 34 Norte 54 Norte 0 1014.6 0.8 71
2019-05-22 21:00:00 19.6 34 Norte 50 Norte 0 1014.2 0.4 70
2019-05-22 20:00:00 21 32 Norte 52 Norte 0 1014.1 0.1 67
2019-05-22 19:00:00 22.2 40 Norte 55 Norte 0 1013.8 -0.3 61
2019-05-22 18:00:00 23.3 35 Norte 55 Norte 0 1013.8 -0.4 58
2019-05-22 17:00:00 23.4 35 Norte 52 Norte 0 1014 -0.7 61
2019-05-22 16:00:00 24.8 36 Norte 52 Norte 0 1014.1 -0.8 56
2019-05-22 15:00:00 25.3 35 Norte 52 Norte 0 1014.2 -0.9 55
2019-05-22 14:00:00 25.1 39 Norte 55 Nordeste 0 1014.7 0 56
2019-05-22 13:00:00 24.8 39 Norte 58 Norte 0 1014.9 0.5 54
2019-05-22 12:00:00 22.9 35 Norte 59 Norte 0 1015.1 1.2 62
2019-05-22 11:00:00 22 35 Norte 58 Norte 0 1014.7 1.2 65
2019-05-22 10:00:00 21.1 40 Norte 55 Norte 0 1014.4 1.2 70
2019-05-22 09:00:00 20.3 40 Norte 55 Norte 0 1013.9 1.3 68
2019-05-22 08:00:00 19.3 33 Norte 46 Norte 0 1013.5 0.8 76
2019-05-22 07:00:00 18.8 28 Norte 52 Norte 0 1013.2 0.2 80
2019-05-22 06:00:00 19 41 Norte 54 Norte 0 1012.6 -0.2 79
2019-05-22 05:00:00 18.8 35 Norte 54 Norte 0 1012.7 -0.6 81
2019-05-22 04:00:00 18.4 33 Norte 58 Norte 0 1013 -0.9 82
2019-05-22 03:00:00 18.5 40 Norte 61 Norte 0 1012.8 -0.8 82
2019-05-22 02:00:00 18.6 39 Norte 55 Norte 0 1013.3 -0.6 80
2019-05-22 01:00:00 18.6 33 Norte 54 Norte 0 1013.9 0.1 79
2019-05-22 00:00:00 18.6 35 Norte 50 Norte 0 1013.6 0.3 81
2019-05-21 23:00:00 18.8 35 Norte 55 Norte 0 1013.9 0.7 77
2019-05-21 22:00:00 19 29 Norte 50 Norte 0 1013.8 1 76
2019-05-21 21:00:00 19.6 37 Norte 59 Norte 0 1013.3 0.2 77
2019-05-21 20:00:00 20.4 29 Norte 52 Norte 0 1013.2 0 71
2019-05-21 19:00:00 21.8 39 Norte 59 Norte 0 1012.8 -1.2 63
2019-05-21 18:00:00 22.7 42 Norte 65 Norte 0 1013.1 -1.3 63
2019-05-21 17:00:00 24.1 40 Norte 61 Norte 0 1013.2 -1.3 55
2019-05-21 16:00:00 24.5 33 Norte 55 Norte 0 1014 -0.6 54
2019-05-21 15:00:00 24.3 37 Norte 54 Norte 0 1014.4 -0.5 54
2019-05-21 14:00:00 24.6 38 Norte 50 Norte 0 1014.5 -- 54
2019-05-21 13:00:00 24 35 Norte 50 Norte 0 1014.6 0.2 53
2019-05-21 12:00:00 22 27 Norte 48 Norte -- 1014.9 0.7 62
2019-05-21 11:00:00 20.7 31 Norte 46 Norte -- -- -- 68
2019-05-21 10:00:00 20.3 30 Norte 45 Norte 0 1014.4 1.3 68
2019-05-21 09:00:00 19.3 27 Norte 46 Norte 0 1014.2 1.1 75
2019-05-21 08:00:00 19 26 Norte 45 Norte 0 1013.4 -0.1 73
2019-05-21 07:00:00 18.7 24 Norte 48 Norte 0 1013.1 -0.9 77
2019-05-21 06:00:00 18.8 27 Norte 46 Norte 0 1013.1 -1.2 78
2019-05-21 05:00:00 18.8 28 Norte 39 Norte 0 1013.5 -1.3 76
2019-05-21 04:00:00 18.9 20 Norte 41 Norte 0 1014 -1.1 81
2019-05-21 03:00:00 19.2 22 Norte 41 Norte 0 1014.3 -1.1 72
2019-05-21 02:00:00 19.1 25 Norte 41 Norte 0 1014.8 -0.5 75
2019-05-21 01:00:00 19.1 28 Norte 46 Norte 0 1015.1 0.1 75
2019-05-21 00:00:00 19 29 Norte 42 Norte 0.6 1015.4 0.9 77
2019-05-20 23:00:00 19.1 17 Norte 35 Norte 0.2 1015.3 1.2 77
2019-05-20 22:00:00 19.2 22 Norte 39 Noroeste 0 1015 1.2 76
2019-05-20 21:00:00 19.3 17 Norte 42 Norte 0 1014.5 0.4 73
2019-05-20 20:00:00 20.9 25 Norte 54 Norte 0 1014.1 0.4 61
2019-05-20 19:00:00 21.6 34 Norte 58 Norte 0 1013.8 -0.1 61
2019-05-20 18:00:00 22.1 31 Norte 52 Norte 0 1014.1 -0.3 63
2019-05-20 17:00:00 23.2 35 Norte 50 Norte 0 1013.7 -0.9 55
2019-05-20 16:00:00 23.6 35 Norte 48 Norte 0 1013.9 -0.9 56
2019-05-20 15:00:00 23.2 35 Norte 54 Norte 0 1014.4 -0.7 59
2019-05-20 14:00:00 24.2 37 Norte 55 Norte 0 1014.6 -0.1 49
2019-05-20 13:00:00 23.5 31 Norte 48 Norte 0 1014.8 0.3 57
2019-05-20 12:00:00 22.1 33 Norte 52 Norte 0 1015.1 1 62
2019-05-20 11:00:00 22.8 41 Norte 54 Norte 0 1014.7 1 54
2019-05-20 10:00:00 20.9 43 Norte 54 Norte 0 1014.5 1.4 67
2019-05-20 09:00:00 19.4 28 Norte 48 Norte 0 1014.1 1.2 81
2019-05-20 08:00:00 18.4 32 Norte 46 Norte 0 1013.7 0.7 85
2019-05-20 07:00:00 18.9 21 Norte 37 Norte 0 1013.1 0 74
2019-05-20 06:00:00 19.1 25 Norte 42 Norte 0 1012.9 -0.7 75
2019-05-20 05:00:00 18.8 24 Norte 39 Norte 0 1013 -1.1 80
2019-05-20 04:00:00 18.6 28 Norte 45 Norte 0 1013.1 -1.7 79
2019-05-20 03:00:00 18.4 28 Norte 48 Norte 0 1013.6 -1.1 78
2019-05-20 02:00:00 18.6 33 Norte 46 Norte 0 1014.1 0.4 77
2019-05-20 01:00:00 18.3 31 Norte 46 Norte 0 1014.8 1.8 77
2019-05-20 00:00:00 18.4 37 Norte 61 Norte 0 1014.7 1.7 78
2019-05-19 23:00:00 18.4 44 Norte 58 Norte 0 1013.7 0.8 77
2019-05-19 22:00:00 18.6 36 Norte 55 Norte 0 1013 -0.4 78
2019-05-19 21:00:00 19 39 Norte 59 Norte 0 1013 -0.5 75
2019-05-19 20:00:00 20.3 39 Norte 58 Norte 0 1012.9 -0.8 66
2019-05-19 19:00:00 21.1 40 Norte 58 Norte 0 1013.4 -0.5 62
2019-05-19 18:00:00 22.2 42 Norte 55 Norte 0 1013.5 -0.9 57
2019-05-19 17:00:00 23.2 37 Norte 63 Norte 0 1013.7 -1.1 55
2019-05-19 16:00:00 24.1 51 Norte 65 Norte 0 1013.9 -1.2 50
2019-05-19 15:00:00 24.7 41 Norte 61 Norte 0 1014.4 -0.7 51
2019-05-19 14:00:00 24.3 36 Norte 54 Norte 0 1014.8 -0.3 50
2019-05-19 13:00:00 22.3 35 Norte 50 Norte 0 1015.1 0.2 61
2019-05-19 12:00:00 22 36 Norte 48 Norte 0 1015.1 0.9 59
2019-05-19 11:00:00 20.4 24 Nordeste 37 Nordeste 0 1015.1 1.6 65
2019-05-19 10:00:00 19.4 22 Norte 39 Norte 0 1014.9 2.1 71
2019-05-19 09:00:00 19.1 30 Norte 41 Norte 0 1014.2 1.5 70
2019-05-19 08:00:00 18.3 23 Norte 39 Norte 0 1013.5 1.1 76
2019-05-19 07:00:00 18 27 Norte 48 Norte 0 1012.8 0.2 77
2019-05-19 06:00:00 18.1 28 Norte 50 Norte 0 1012.7 0.4 79
2019-05-19 05:00:00 17.9 28 Norte 48 Norte 0 1012.4 -0.7 79
2019-05-19 04:00:00 17.8 30 Norte 54 Norte 0 1012.6 -0.9 81
2019-05-19 03:00:00 17.7 38 Norte 54 Norte 0 1012.3 -0.8 80
2019-05-19 02:00:00 17.8 33 Norte 48 Norte 0 1013.1 0.4 80
2019-05-19 01:00:00 17.9 40 Norte 55 Norte 0 1013.5 1.3 82
2019-05-19 00:00:00 18.2 40 Norte 55 Norte 0 1013.1 1.3 80
2019-05-18 23:00:00 18.4 40 Norte 55 Norte 0 1012.7 1 79
2019-05-18 22:00:00 18.6 38 Norte 54 Norte 0 1012.2 0.6 76
2019-05-18 21:00:00 19 41 Norte 58 Norte 0 1011.8 0.2 75
2019-05-18 20:00:00 20.5 36 Norte 52 Norte 0 1011.7 0.1 70
2019-05-18 19:00:00 22.9 33 Norte 46 Norte 0 1011.6 -0.2 58
2019-05-18 18:00:00 24.4 30 Norte 41 Norte 0 1011.6 -0.8 52
2019-05-18 17:00:00 25.2 22 Norte 45 Nordeste 0 1011.6 -0.8 49
2019-05-18 16:00:00 24.7 29 Nordeste 46 Nordeste 0 1011.8 -0.7 52
2019-05-18 15:00:00 24.4 35 Nordeste 50 Nordeste 0 1012.4 -0.4 53
2019-05-18 14:00:00 24.4 35 Nordeste 59 Nordeste 0 1012.4 -0.4 53
2019-05-18 13:00:00 24 35 Nordeste 52 Nordeste 0 1012.5 0 53
2019-05-18 12:00:00 23.3 33 Nordeste 54 Nordeste 0 1012.8 0.7 56
2019-05-18 11:00:00 22.1 29 Nordeste 50 Nordeste 0 1012.8 1.4 61
2019-05-18 10:00:00 21.3 30 Nordeste 46 Nordeste 0 1012.5 1.3 62
2019-05-18 09:00:00 19.5 30 Nordeste 45 Nordeste 0 1012.1 1 70
2019-05-18 08:00:00 18.1 22 Norte 33 Nordeste 0 1011.4 -0.2 76
2019-05-18 07:00:00 16.6 18 Norte 32 Nordeste 0 1011.2 0.3 82
2019-05-18 06:00:00 17.5 24 Nordeste 41 Nordeste 0 1011.1 -0.5 80
2019-05-18 05:00:00 17.5 15 Nordeste 32 Norte 0 1011.6 -0.7 79
2019-05-18 04:00:00 17.5 25 Norte 42 Norte 0 1010.9 -1.5 84
2019-05-18 03:00:00 17.8 31 Norte 45 Norte 0 1011.6 -1.6 83
2019-05-18 02:00:00 18 27 Norte 41 Norte 0 1012.3 -0.5 81
2019-05-18 01:00:00 18.1 24 Norte 42 Norte 0 1012.4 0.3 83
2019-05-18 00:00:00 18.4 32 Norte 42 Norte 0 1013.2 2.2 83
2019-05-17 23:00:00 18.6 23 Norte 45 Norte 0 1012.8 2.5 82
2019-05-17 22:00:00 19 34 Norte 48 Norte 0 1012.1 1.9 81
2019-05-17 21:00:00 19.5 36 Norte 55 Norte 0 1011 0.3 78
2019-05-17 20:00:00 21.4 40 Norte 65 Norte 0 1010.3 -0.6 70
2019-05-17 19:00:00 23.1 46 Norte 52 Norte 0 1010.2 -1.4 63
2019-05-17 18:00:00 24.1 33 Norte 45 Norte 0 1010.7 -0.2 60
2019-05-17 17:00:00 26.8 18 Norte 45 Nordeste 0 1010.9 0 50
2019-05-17 16:00:00 26.7 24 Nordeste 48 Nordeste 0 1011.6 -0.1 47
2019-05-17 15:00:00 27.3 25 Norte 55 Norte 0 1010.9 -1.3 47
2019-05-17 14:00:00 26.9 37 Nordeste 55 Nordeste 0 1010.9 -0.8 47
2019-05-17 13:00:00 27.3 38 Norte 48 Norte 0 1011.7 0.2 49
2019-05-17 12:00:00 26.9 25 Nordeste 41 Nordeste 0 1012.2 1 44
2019-05-17 11:00:00 26 24 Norte 50 Norte 0 1011.7 1 51
2019-05-17 10:00:00 24.3 28 Nordeste 42 Norte 0 1011.5 1.5 58
2019-05-17 09:00:00 22.5 19 Norte 37 Nordeste 0 1011.2 1.5 66
2019-05-17 08:00:00 20.4 25 Nordeste 39 Nordeste 0 1010.7 1 70
2019-05-17 07:00:00 19.5 21 Norte 37 Norte 0 1010 0.2 74
2019-05-17 06:00:00 20.4 23 Norte 33 Nordeste 0 1009.7 -0.6 66
2019-05-17 05:00:00 20.8 18 Nordeste 39 Nordeste 0 1009.7 -0.9 62
2019-05-17 04:00:00 20.4 22 Nordeste 37 Nordeste 0 1009.8 -1.4 70
2019-05-17 03:00:00 20.6 20 Nordeste 41 Nordeste 0 1010.3 -0.8 70
2019-05-17 02:00:00 21.4 21 Nordeste 37 Nordeste 0 1010.6 -0.2 60
2019-05-17 01:00:00 21.2 18 Nordeste 41 Nordeste 0 1011.2 1.4 66
2019-05-17 00:00:00 22 19 Nordeste 42 Nordeste 0 1011.1 1.9 58
2019-05-16 23:00:00 23.1 26 Nordeste 46 Nordeste 0 1010.8 1.9 48
2019-05-16 22:00:00 23.9 30 Nordeste 50 Nordeste 0 1009.8 1.4 46
2019-05-16 21:00:00 24.1 24 Norte 42 Nordeste 0 1009.2 0.6 52
2019-05-16 20:00:00 25.8 25 Norte 37 Norte 0 1008.9 -0.2 51
2019-05-16 19:00:00 26.3 23 Norte 33 Norte 0 1008.4 -1.1 57
2019-05-16 18:00:00 27.8 22 Norte 45 Noroeste 0 1008.6 -0.9 53
2019-05-16 17:00:00 24.4 17 Sudeste 22 Sudeste 0 1009.1 -0.6 67
2019-05-16 16:00:00 24 13 Sudeste 21 Este 0 1009.5 -0.6 69
2019-05-16 15:00:00 24.1 15 Este 22 Este 0 1009.5 -0.8 65
2019-05-16 14:00:00 23.4 11 Este 17 Este 0 1009.7 -0.1 71
2019-05-16 13:00:00 23 10 Sudeste 18 Sur 0 1010.1 0.5 72
2019-05-16 12:00:00 22.4 14 Sur 24 Sur 0 1010.3 1.3 73
2019-05-16 11:00:00 22 14 Sur 21 Sur 0 1009.8 0.7 74
2019-05-16 10:00:00 21.4 13 Sur 18 Sur 0 1009.6 -- 74
2019-05-16 09:00:00 20.2 9 Oeste 28 Noroeste 0 1009 -- 75
2019-05-16 08:00:00 17.9 4 Sur 17 Norte 0 1009.1 -- 87
2019-05-16 07:00:00 -- -- -- -- -- -- -- -- --
2019-05-16 06:00:00 -- -- -- -- -- -- -- -- --
2019-05-16 05:00:00 -- -- -- -- -- -- -- -- --
2019-05-16 04:00:00 -- -- -- -- -- -- -- -- --
2019-05-16 03:00:00 17.5 9 Norte 21 Norte 0 1009 -1.2 87
2019-05-16 02:00:00 17.9 16 Norte 28 Noroeste 0 1009.7 -0.5 86
2019-05-16 01:00:00 18 16 Norte 26 Norte 0 1010.2 0.5 86
2019-05-16 00:00:00 18.4 17 Norte 26 Norte 0 1010.2 0.8 83
2019-05-15 23:00:00 18.7 22 Noroeste 30 Noroeste 0 1010.2 1.6 83
2019-05-15 22:00:00 19 24 Norte 37 Noroeste 0 1009.7 1.1 82
2019-05-15 21:00:00 19.8 23 Norte 35 Noroeste 0 1009.4 0.7 78
2019-05-15 20:00:00 21.9 22 Noroeste 37 Norte 0 1008.6 -0.4 70
2019-05-15 19:00:00 22.8 7 Oeste 22 Norte 0 1008.6 -0.4 70
2019-05-15 18:00:00 23.3 8 Sur 18 Sur 0 1008.7 -0.4 69
2019-05-15 17:00:00 24 13 Sudeste 26 Sur 0 1009 -0.7 65
2019-05-15 16:00:00 25.6 15 Sur 26 Sur 0 1009 -1.4 59
2019-05-15 15:00:00 26.4 9 Sur 32 Noroeste 0 1009.1 -1.5 56
2019-05-15 14:00:00 24.1 12 Sudeste 35 Este 0 1009.7 -1.1 64
2019-05-15 13:00:00 22.3 23 Este 35 Este 0 1010.4 -0.3 72
2019-05-15 12:00:00 22.5 21 Este 32 Este 0 1010.6 0.2 70
2019-05-15 11:00:00 23.6 16 Norte 33 Noroeste 0 1010.8 0.7 62
2019-05-15 10:00:00 21.4 18 Norte 30 Norte 0 1010.7 1.2 70
2019-05-15 09:00:00 19.8 19 Norte 28 Norte 0 1010.4 1.3 78
2019-05-15 08:00:00 18.1 18 Norte 30 Norte 0 1010.1 1.1 84
2019-05-15 07:00:00 17.4 15 Norte 33 Norte 0 1009.5 0.5 88
2019-05-15 06:00:00 17.6 20 Norte 35 Noroeste 0 1009.1 -0.2 85
2019-05-15 05:00:00 17.8 22 Noroeste 33 Noroeste 0 1009 -1 86
2019-05-15 04:00:00 17.8 18 Norte 35 Noroeste 0 1009 -1.5 86
2019-05-15 03:00:00 17.9 26 Norte 35 Noroeste 0 1009.3 -1.1 85
2019-05-15 02:00:00 18.2 26 Norte 37 Noroeste 0 1010 -0.5 83
2019-05-15 01:00:00 18.3 26 Norte 41 Norte 0 1010.5 0.2 83
2019-05-15 00:00:00 18.6 24 Norte 41 Norte 0 1010.4 0.4 82
2019-05-14 23:00:00 18.7 23 Noroeste 39 Norte 0 1010.5 0.9 82
2019-05-14 22:00:00 19.1 24 Norte 35 Norte 0 1010.3 1.2 80
2019-05-14 21:00:00 19.8 26 Norte 33 Norte 0 1010 0.8 79
2019-05-14 20:00:00 21.4 24 Norte 39 Norte 0 1009.6 0.2 72
2019-05-14 19:00:00 22.8 31 Norte 42 Norte 0 1009.1 -0.6 65
2019-05-14 18:00:00 23.9 31 Norte 45 Noroeste 0 1009.2 -0.8 61
2019-05-14 17:00:00 25.2 30 Norte 45 Norte 0 1009.4 -0.9 57
2019-05-14 16:00:00 26.1 26 Norte 37 Norte 0 1009.7 -1.1 53
2019-05-14 15:00:00 27 23 Norte 35 Noroeste 0 1010 -0.8 52
2019-05-14 14:00:00 26.2 18 Norte 37 Noroeste 0 1010.3 -0.1 55
2019-05-14 13:00:00 25.1 26 Norte 41 Norte 0 1010.8 0.8 58
2019-05-14 12:00:00 24.5 26 Norte 37 Norte 0 1010.8 1 59
2019-05-14 11:00:00 23.4 25 Norte 45 Noroeste 0 1010.4 0.5 63
2019-05-14 10:00:00 21.3 30 Norte 41 Norte 0 1010 0.6 70
2019-05-14 09:00:00 20.1 24 Noroeste 35 Noroeste 0 1009.8 0.6 74
2019-05-14 08:00:00 18.5 22 Noroeste 32 Noroeste 0 1009.9 0.9 80
2019-05-14 07:00:00 17.8 5 Oeste 18 Noroeste 0 1009.4 0.2 84
2019-05-14 06:00:00 18.1 14 Noroeste 24 Noroeste 0 1009.2 -0.4 80
2019-05-14 05:00:00 17.9 17 Noroeste 28 Noroeste 0 1009 -1 84
2019-05-14 04:00:00 17.9 17 Norte 28 Norte 0 1009.2 -1 85
2019-05-14 03:00:00 17.9 21 Norte 35 Noroeste 0 1009.6 -0.8 86
2019-05-14 02:00:00 18 24 Noroeste 33 Noroeste 0 1010 -0.4 87
2019-05-14 01:00:00 18.2 19 Norte 33 Norte 0 1010.2 -0.3 87
2019-05-14 00:00:00 18.4 22 Norte 35 Norte 0 1010.4 0.3 85
2019-05-13 23:00:00 18.7 23 Norte 42 Norte 0 1010.4 0.9 83
2019-05-13 22:00:00 19.4 28 Norte 45 Noroeste 0 1010.5 1.2 81
2019-05-13 21:00:00 20.1 32 Norte 45 Norte 0 1010.1 1 78
2019-05-13 20:00:00 21.9 31 Noroeste 50 Noroeste 0 1009.5 0 72
2019-05-13 19:00:00 23.7 35 Noroeste 50 Norte 0 1009.3 -0.5 65
2019-05-13 18:00:00 26.9 31 Noroeste 39 Noroeste 0 1009.1 -0.7 52
2019-05-13 17:00:00 24.5 13 Sudeste 18 Sudeste 0 1009.5 -0.5 68
2019-05-13 16:00:00 24.9 13 Sudeste 18 Sudeste 0 1009.8 -0.1 65
2019-05-13 15:00:00 25.5 12 Sudeste 18 Sudeste 0 1009.8 -0.3 60
2019-05-13 14:00:00 25.6 15 Sur 37 Sudeste 0 1010 -0.1 60
2019-05-13 13:00:00 28.8 12 Este 30 Norte 0 1009.9 0 47
2019-05-13 12:00:00 30 23 Norte 32 Norte 0 1010.1 0.2 40
2019-05-13 11:00:00 28.2 22 Norte 32 Norte 0 1010.1 0.2 45
2019-05-13 10:00:00 25.7 12 Noroeste 45 Noroeste 0 1009.9 0.7 52
2019-05-13 09:00:00 22.5 5 Oeste 35 Noroeste 0 1009.9 0.7 61
2019-05-13 08:00:00 20.2 7 Noroeste 26 Oeste 0 1009.9 0.4 71
2019-05-13 07:00:00 19.4 27 Noroeste 37 Noroeste 0 1009.2 -0.6 75
2019-05-13 06:00:00 18.2 4 Noroeste 15 Noroeste 0 1009.2 -1.2 79
2019-05-13 05:00:00 18.7 12 Noroeste 24 Noroeste 0 1009.5 -1.5 83
2019-05-13 04:00:00 18.7 13 Norte 26 Norte 0 1009.8 -1.6 84
2019-05-13 03:00:00 18.7 20 Norte 32 Noroeste 0 1010.4 -1.2 89
2019-05-13 02:00:00 19 21 Noroeste 28 Noroeste 0 1011 -0.7 85
2019-05-13 01:00:00 19.1 17 Norte 33 Noroeste 0 1011.4 0.2 86
2019-05-13 00:00:00 19.3 22 Norte 32 Norte 0 1011.6 1.2 85
2019-05-12 23:00:00 19.6 24 Noroeste 37 Norte 0 1011.7 2 85
2019-05-12 22:00:00 19.7 28 Norte 45 Noroeste 0 1011.2 1.9 83
2019-05-12 21:00:00 21 25 Noroeste 37 Noroeste 0 1010.4 0.8 73
2019-05-12 20:00:00 22.2 9 Sudeste 35 Oeste 0 1009.7 0 77
2019-05-12 19:00:00 25.2 21 Noroeste 33 Noroeste 0 1009.3 -0.9 57
2019-05-12 18:00:00 23.5 12 Sur 18 Sur 0 1009.6 -1.3 69
2019-05-12 17:00:00 24.2 14 Sur 18 Sur 0 1009.7 -1.8 67
2019-05-12 16:00:00 24.3 15 Sur 21 Sur 0 1010.2 -1.9 66
2019-05-12 15:00:00 23.5 11 Sudeste 17 Sur 0 1010.9 -1.2 69
2019-05-12 14:00:00 23 11 Sudeste 18 Sudeste 0 1011.5 -0.2 71
2019-05-12 13:00:00 21.9 10 Sudeste 18 Sur 0 1012.1 0.9 74
2019-05-12 12:00:00 22 14 Sur 21 Sur 0 1012.1 1 74
2019-05-12 11:00:00 21 14 Sur 22 Oeste 0 1011.7 0.8 76
2019-05-12 10:00:00 20.4 8 Sur 13 Sur 0 1011.2 0.5 77
2019-05-12 09:00:00 18.3 7 Sudoeste 13 Norte 0 1011.1 0.9 86
2019-05-12 08:00:00 16.1 4 Noroeste 17 Norte 0 1010.9 0.6 93
2019-05-12 07:00:00 15.4 11 Norte 18 Nordeste 0 1010.7 0.4 93
2019-05-12 06:00:00 15.4 12 Norte 15 Norte 0 1010.2 -0.5 95
2019-05-12 05:00:00 15.1 10 Norte 13 Norte 0 1010.3 -0.9 90
2019-05-12 04:00:00 15.9 10 Norte 15 Norte 0 1010.3 -1.5 91
2019-05-12 03:00:00 17.1 10 Norte 24 Nordeste 0 1010.7 -1.5 89
2019-05-12 02:00:00 17.8 18 Nordeste 28 Nordeste 0 1011.2 -1.1 89
2019-05-12 01:00:00 18.2 18 Nordeste 28 Nordeste 0 1011.8 -0.2 86
2019-05-12 00:00:00 19 14 Norte 22 Norte 0 1012.2 1 85
2019-05-11 23:00:00 19 15 Norte 30 Norte 0 1012.3 1.4 86
2019-05-11 22:00:00 19.3 21 Norte 42 Norte 0 1012 1.5 84
2019-05-11 21:00:00 19.9 26 Norte 45 Noroeste 0 1011.2 0.7 81
2019-05-11 20:00:00 21.9 27 Norte 33 Norte 0 1010.9 0.1 72
2019-05-11 19:00:00 24.7 22 Norte 41 Noroeste 0 1010.5 -0.7 62
2019-05-11 18:00:00 26.3 22 Norte 39 Nordeste 0 1010.5 -0.9 57
2019-05-11 17:00:00 25.7 24 Nordeste 42 Nordeste 0 1010.8 -0.7 59
2019-05-11 16:00:00 25.7 26 Nordeste 45 Este 0 1011.2 -1 59
2019-05-11 15:00:00 26 28 Nordeste 50 Nordeste 0 1011.4 -1.4 57
2019-05-11 14:00:00 25 30 Nordeste 46 Nordeste 0 1011.5 -1.6 60
2019-05-11 13:00:00 24 31 Nordeste 46 Nordeste 0 1012.2 -0.2 63
2019-05-11 12:00:00 23.1 32 Nordeste 46 Nordeste 0 1012.8 0.2 65
2019-05-11 11:00:00 23.1 27 Nordeste 45 Nordeste 0 1013.1 0.5 65
2019-05-11 10:00:00 22.2 29 Nordeste 41 Nordeste 0 1012.4 -0.1 68
2019-05-11 09:00:00 21.1 25 Norte 37 Norte 0 1012.6 0.1 72
2019-05-11 08:00:00 19.1 24 Norte 33 Norte 0 1012.6 -0.3 82
2019-05-11 07:00:00 18.7 21 Norte 33 Norte 0 1012.5 -0.5 84
2019-05-11 06:00:00 18.6 14 Norte 21 Norte 0 1012.5 -0.9 81
2019-05-11 05:00:00 17.8 12 Norte 30 Norte 0 1012.9 -1.2 84
2019-05-11 04:00:00 17.7 13 Norte 24 Norte 0 1013 -1.6 83
2019-05-11 03:00:00 18.5 17 Norte 30 Nordeste 0 1013.4 -1.6 77
2019-05-11 02:00:00 18.9 21 Nordeste 39 Norte 0 1014.1 -0.2 75
2019-05-11 01:00:00 19.2 21 Norte 32 Nordeste 0 1014.6 0.1 74
2019-05-11 00:00:00 19.6 22 Norte 41 Nordeste 0 1015 1.3 76
2019-05-10 23:00:00 19.4 28 Nordeste 42 Nordeste 0 1014.3 0.9 74
2019-05-10 22:00:00 20 26 Nordeste 45 Nordeste 0 1014.5 1.5 70
2019-05-10 21:00:00 20.5 23 Nordeste 39 Norte 0 1013.7 1 72
2019-05-10 20:00:00 21.5 28 Norte 45 Norte 0 1013.4 0.3 66
2019-05-10 19:00:00 22.9 31 Norte 48 Norte 0 1013 -0.2 60
2019-05-10 18:00:00 23.9 38 Norte 50 Norte 0 1012.7 -0.4 56
2019-05-10 17:00:00 24.9 30 Norte 46 Norte 0 1013.1 0.1 54
2019-05-10 16:00:00 25.3 33 Norte 50 Norte 0 1013.2 -0.4 53
2019-05-10 15:00:00 25.8 37 Norte 50 Norte 0 1013.1 -0.8 50
2019-05-10 14:00:00 25.8 33 Norte 46 Norte 0 1013 -0.7 49
2019-05-10 13:00:00 25.2 30 Norte 45 Norte 0 1013.6 -0.3 50
2019-05-10 12:00:00 24.2 30 Norte 46 Norte 0 1013.9 0.4 54
2019-05-10 11:00:00 23.3 31 Norte 45 Norte 0 1013.7 0.5 55
2019-05-10 10:00:00 21.7 30 Norte 41 Norte 0 1013.9 0.7 60
2019-05-10 09:00:00 19.5 34 Norte 45 Norte 0 1013.5 0.4 66
2019-05-10 08:00:00 18.7 25 Norte 35 Norte 0 1013.2 0.1 71
2019-05-10 07:00:00 18.4 19 Norte 32 Norte 0 1013.2 -0.2 72
2019-05-10 06:00:00 18.4 17 Norte 32 Norte 0 1013.1 -0.9 72
2019-05-10 05:00:00 18.4 14 Norte 30 Norte 0 1013.1 -1.5 74
2019-05-10 04:00:00 18.6 17 Norte 28 Norte 0 1013.4 -2 73
2019-05-10 03:00:00 18.6 20 Nordeste 30 Nordeste 0 1014 -1.5 72
2019-05-10 02:00:00 19 19 Nordeste 30 Nordeste 0 1014.6 -0.8 72
2019-05-10 01:00:00 18.9 16 Norte 32 Norte 0 1015.4 0.2 72
2019-05-10 00:00:00 19.5 17 Nordeste 39 Norte 0 1015.5 1.4 70
2019-05-09 23:00:00 19.7 21 Norte 33 Norte 0 1015.4 2 72
2019-05-09 22:00:00 19.3 17 Nordeste 37 Norte 0 1015.2 1.4 79
2019-05-09 21:00:00 19.6 23 Norte 39 Norte 0 1014.1 0.3 76
2019-05-09 20:00:00 21.4 29 Norte 39 Norte 0 1013.4 -0.3 69
2019-05-09 19:00:00 22.1 26 Norte 42 Noroeste 0 1013.8 -0.4 64
2019-05-09 18:00:00 23.4 30 Norte 42 Noroeste 0 1013.8 -0.8 60
2019-05-09 17:00:00 24.7 30 Norte 46 Norte 0 1013.7 -1.3 54
2019-05-09 16:00:00 25 31 Norte 46 Norte 0 1014.2 -1.5 53
2019-05-09 15:00:00 25.3 31 Norte 46 Norte 0 1014.6 -1.3 52
2019-05-09 14:00:00 25.1 31 Norte 46 Norte 0 1015 -0.9 53
2019-05-09 13:00:00 24.6 31 Norte 46 Norte 0 1015.7 0 56
2019-05-09 12:00:00 23.6 27 Norte 45 Noroeste 0 1015.9 0.3 59
2019-05-09 11:00:00 22.3 28 Norte 39 Norte 0 1015.9 0.5 64
2019-05-09 10:00:00 21.1 27 Norte 39 Norte 0 1015.7 0.5 68
2019-05-09 09:00:00 19.6 27 Norte 37 Norte 0 1015.6 0.3 76
2019-05-09 08:00:00 17.4 26 Norte 37 Norte 0 1015.4 -0.2 85
2019-05-09 07:00:00 16.7 23 Norte 32 Norte 0 1015.2 -0.4 88
2019-05-09 06:00:00 16.7 20 Norte 30 Norte 0 1015.3 -1.1 88
2019-05-09 05:00:00 16.5 15 Norte 24 Norte 0 1015.6 -1.7 89
2019-05-09 04:00:00 16.9 13 Norte 26 Norte 0 1015.6 -2.2 88
2019-05-09 03:00:00 17.3 17 Norte 30 Norte 0 1016.4 -1.6 87
2019-05-09 02:00:00 17.6 21 Norte 33 Norte 0 1017.3 -0.6 86
2019-05-09 01:00:00 17.8 16 Norte 32 Norte 0 1017.8 0.3 86
2019-05-09 00:00:00 18 20 Norte 39 Norte 0 1018 0.9 85
2019-05-08 23:00:00 18.3 28 Norte 39 Norte 0 1017.9 1.3 81
2019-05-08 22:00:00 18.6 27 Norte 41 Norte 0 1017.5 1.1 82
2019-05-08 21:00:00 19.1 29 Norte 39 Norte 0 1017.1 0.4 80
2019-05-08 20:00:00 21 25 Norte 41 Norte 0 1016.6 -0.3 70
2019-05-08 19:00:00 22.5 28 Norte 45 Norte 0 1016.4 -0.8 64
2019-05-08 18:00:00 23.5 31 Norte 46 Norte 0 1016.7 -0.8 59
2019-05-08 17:00:00 25 30 Norte 42 Norte 0 1016.9 -1 53
2019-05-08 16:00:00 25.4 30 Norte 41 Norte 0 1017.2 -1.2 54
2019-05-08 15:00:00 26.1 28 Norte 45 Este 0 1017.5 -1.1 52
2019-05-08 14:00:00 23.7 20 Este 37 Este 0 1017.9 -0.5 62
2019-05-08 13:00:00 25.1 18 Norte 45 Noroeste 0 1018.4 0.2 55
2019-05-08 12:00:00 24.4 25 Norte 46 Norte 0 1018.6 0.6 57
2019-05-08 11:00:00 22.8 29 Norte 41 Norte 0 1018.4 0.7 61
2019-05-08 10:00:00 21.3 32 Norte 42 Norte 0 1018.2 0.8 67
2019-05-08 09:00:00 19.4 28 Norte 41 Norte 0 1018 0.7 75
2019-05-08 08:00:00 17.2 13 Nordeste 22 Nordeste 0 1017.7 0.3 85
2019-05-08 07:00:00 15.8 8 Nordeste 17 Nordeste 0 1017.4 -0.1 87
2019-05-08 06:00:00 16.2 10 Nordeste 21 Nordeste 0 1017.3 -0.9 85
2019-05-08 05:00:00 16.5 13 Nordeste 21 Nordeste 0 1017.4 -1.3 81
2019-05-08 04:00:00 16.5 14 Nordeste 24 Nordeste 0 1017.5 -1.6 79
2019-05-08 03:00:00 16.3 14 Norte 21 Norte 0 1018.2 -1.1 78
2019-05-08 02:00:00 17.6 12 Norte 21 Norte 0 1018.7 -0.1 74
2019-05-08 01:00:00 17.9 11 Nordeste 24 Norte 0 1019.1 1 75
2019-05-08 00:00:00 18 16 Norte 28 Norte 0 1019.3 1.8 76
2019-05-07 23:00:00 18 20 Norte 32 Nordeste 0 1018.8 2.1 76
2019-05-07 22:00:00 18.1 22 Norte 33 Norte 0 1018.1 1.4 77
2019-05-07 21:00:00 18.6 25 Norte 37 Norte 0 1017.5 0.9 75
2019-05-07 20:00:00 20 30 Norte 39 Norte 0 1016.7 0 68
2019-05-07 19:00:00 21.6 30 Norte 45 Norte 0 1016.7 -0.2 63
2019-05-07 18:00:00 23.5 32 Norte 41 Norte 0 1016.6 -0.5 56
2019-05-07 17:00:00 24.5 24 Norte 46 Norte 0 1016.7 -0.7 50
2019-05-07 16:00:00 25.8 27 Norte 37 Noroeste 0 1016.9 -0.9 48
2019-05-07 15:00:00 25.9 23 Norte 41 Norte 0 1017.1 -1.1 48
2019-05-07 14:00:00 25.4 23 Norte 48 Norte 0 1017.4 -1.1 49
2019-05-07 13:00:00 24.1 22 Norte 41 Norte 0 1017.8 -0.5 52
2019-05-07 12:00:00 23.5 26 Norte 42 Noroeste 0 1018.2 0 53
2019-05-07 11:00:00 22.2 19 Norte 33 Norte 0 1018.5 0.6 57
2019-05-07 10:00:00 20.8 15 Nordeste 28 Norte 0 1018.3 0.6 62
2019-05-07 09:00:00 18.6 17 Norte 28 Norte 0 1018.2 -- 69
2019-05-07 08:00:00 16.4 8 Norte 18 Noroeste 0 1017.9 0.3 76
2019-05-07 07:00:00 17 9 Norte 24 Norte 0 1017.7 -0.2 75
2019-05-07 06:00:00 17.6 19 Norte 30 Norte 0 -- -- 73
2019-05-07 05:00:00 18 17 Norte 32 Norte 0 1017.6 -1.4 72
2019-05-07 04:00:00 18.2 20 Norte 28 Norte 0 1017.9 -1.5 71
2019-05-07 03:00:00 18.5 16 Norte 30 Nordeste 0 1018.3 -1.1 72
2019-05-07 02:00:00 18.7 15 Nordeste 32 Nordeste 0 1019 -0.2 72
2019-05-07 01:00:00 18.8 20 Nordeste 30 Norte 0 1019.4 0.4 72
2019-05-07 00:00:00 18.9 21 Norte 33 Norte 0 1019.4 1 72
2019-05-06 23:00:00 19 26 Norte 37 Norte 0 1019.2 1.5 73
2019-05-06 22:00:00 18.8 23 Norte 37 Norte 0 1019 2 75
2019-05-06 21:00:00 19.1 28 Norte 39 Norte 0 1018.4 1.4 70
2019-05-06 20:00:00 20.4 26 Norte 42 Norte 0 1017.7 0.5 67
2019-05-06 19:00:00 21.5 30 Norte 42 Norte 0 1017 -0.4 62
2019-05-06 18:00:00 23.4 27 Norte 39 Norte 0 1017 -0.9 54
2019-05-06 17:00:00 24.5 25 Norte 37 Norte 0 1017.2 -1.1 51
2019-05-06 16:00:00 24.9 17 Norte 35 Noroeste 0 1017.4 -1.3 50
2019-05-06 15:00:00 24.4 19 Norte 33 Norte 0 1017.9 -1.3 51
2019-05-06 14:00:00 23.1 18 Nordeste 37 Este 0 1018.3 -0.4 57
2019-05-06 13:00:00 22 18 Norte 30 Norte 0 1018.7 0.1 61
2019-05-06 12:00:00 21.1 20 Norte 30 Norte 0 1019.2 0.9 63
2019-05-06 11:00:00 21.3 18 Nordeste 32 Norte 0 1018.7 0.9 58
2019-05-06 10:00:00 20.1 19 Norte 32 Norte 0 1018.6 1.3 62
2019-05-06 09:00:00 18.8 20 Nordeste 33 Norte 0 1018.3 1.1 66
2019-05-06 08:00:00 18.3 19 Nordeste 30 Nordeste 0 1017.8 0.7 66
2019-05-06 07:00:00 18.2 21 Norte 28 Norte 0 1017.3 0.2 75
2019-05-06 06:00:00 18.3 13 Norte 28 Norte 0 1017.2 -0.2 70
2019-05-06 05:00:00 18 22 Norte 30 Norte 0 1017.1 -0.9 78
2019-05-06 04:00:00 18.2 21 Norte 30 Norte 0 1017.1 -1.3 75
2019-05-06 03:00:00 18.3 19 Norte 30 Norte 0 1017.4 -1 75
2019-05-06 02:00:00 18.3 20 Norte 28 Norte 0 1018 -0.3 73
2019-05-06 01:00:00 18.4 15 Nordeste 32 Nordeste 0 1018.4 0.5 69
2019-05-06 00:00:00 18.5 25 Norte 33 Norte 0 1018.4 1 69
2019-05-05 23:00:00 18.7 20 Norte 30 Norte 0 1018.3 1.3 66
2019-05-05 22:00:00 18.6 25 Norte 42 Norte 0 1017.9 1.4 72
2019-05-05 21:00:00 18.5 24 Norte 35 Norte 0 1017.4 1 71
2019-05-05 20:00:00 19.3 23 Norte 39 Norte 0 1017 0.5 68
2019-05-05 19:00:00 21 29 Norte 39 Norte 0 1016.5 -0.1 61
2019-05-05 18:00:00 21.9 28 Norte 39 Norte 0 1016.4 -0.5 59
2019-05-05 17:00:00 22 26 Norte 41 Norte 0 1016.5 -0.7 58
2019-05-05 16:00:00 22.6 26 Norte 41 Norte 0 1016.6 -0.6 55
2019-05-05 15:00:00 22.5 22 Norte 37 Norte 0 1016.9 -0.4 56
2019-05-05 14:00:00 22.1 21 Norte 32 Norte 0 1017.2 -0.1 57
2019-05-05 13:00:00 21.9 20 Norte 35 Norte 0 1017.2 0.1 56
2019-05-05 12:00:00 21.3 23 Norte 39 Noroeste 0 1017.3 0.3 56
2019-05-05 11:00:00 20.1 18 Norte 41 Norte 0 1017.3 0.9 62
2019-05-05 10:00:00 19.3 19 Norte 28 Norte 0 1017.1 1.3 61
2019-05-05 09:00:00 18.4 19 Norte 26 Norte 0 1017 1.7 65
2019-05-05 08:00:00 17.9 17 Norte 33 Norte 0 1016.4 1.1 64
2019-05-05 07:00:00 17.6 15 Norte 24 Norte 0 1015.8 0.4 69
2019-05-05 06:00:00 17.8 14 Norte 26 Norte 0 1015.3 -0.2 69
2019-05-05 05:00:00 18 18 Norte 28 Norte 0 1015.3 -0.7 67
2019-05-05 04:00:00 18.1 18 Norte 33 Norte 0 1015.4 -0.9 66
2019-05-05 03:00:00 18.3 17 Norte 30 Norte 0 1015.5 -1.2 66
2019-05-05 02:00:00 18.4 14 Norte 30 Norte 0 1016 -0.5 62
2019-05-05 01:00:00 18.4 18 Norte 35 Noroeste 0 1016.3 0.3 61
2019-05-05 00:00:00 18.3 19 Norte 32 Norte 0 1016.7 1.2 60
2019-05-04 23:00:00 18.4 15 Norte 32 Norte 0 1016.5 1.8 61
2019-05-04 22:00:00 18.3 20 Norte 42 Norte 0 1016 1.7 61
2019-05-04 21:00:00 18.3 22 Norte 35 Noroeste 0 1015.5 1.3 62
2019-05-04 20:00:00 19.4 22 Norte 46 Norte 0 1014.7 0.4 55
2019-05-04 19:00:00 20.8 28 Norte 41 Norte 0 1014.3 -0.2 52
2019-05-04 18:00:00 21.8 25 Norte 42 Noroeste 0 1014.2 -0.7 49
2019-05-04 17:00:00 22.3 24 Norte 46 Noroeste 0 1014.3 -0.7 49
2019-05-04 16:00:00 22.7 23 Norte 42 Noroeste 0 1014.5 -0.8 46
2019-05-04 15:00:00 22.9 22 Norte 41 Norte 0 1014.9 -1 44
2019-05-04 14:00:00 23.2 22 Norte 42 Norte 0 1015 -1 45
2019-05-04 13:00:00 22.5 22 Norte 37 Noroeste 0 1015.3 -0.4 45
2019-05-04 12:00:00 21 18 Noroeste 41 Noroeste 0 1015.9 0.6 50
2019-05-04 11:00:00 19.1 22 Norte 35 Norte 0 1016 1.5 56
2019-05-04 10:00:00 18.4 20 Norte 37 Noroeste 0 1015.7 1.5 63
2019-05-04 09:00:00 18.2 18 Norte 28 Norte 0 1015.3 1.2 60
2019-05-04 08:00:00 17.6 17 Norte 33 Noroeste 0 1014.5 0.6 62
2019-05-04 07:00:00 17.3 15 Noroeste 28 Norte 0 1014.2 0.1 60
2019-05-04 06:00:00 17.4 19 Norte 28 Norte 0 1014.1 -0.3 61
2019-05-04 05:00:00 17.6 18 Norte 30 Norte 0 1013.9 -1.2 61
2019-05-04 04:00:00 17.6 13 Norte 24 Norte 0 1014.1 -1 61
2019-05-04 03:00:00 17.5 16 Norte 26 Norte 0 1014.4 -0.8 61
2019-05-04 02:00:00 17.5 20 Norte 32 Norte 0 1015.1 0.2 61
2019-05-04 01:00:00 17.6 18 Norte 30 Norte 0 1015.1 0.9 64
2019-05-04 00:00:00 17.4 14 Norte 32 Norte 0 1015.2 1.9 62
2019-05-03 23:00:00 17.7 14 Norte 32 Norte 0 1014.9 2.4 61
2019-05-03 22:00:00 18.1 18 Norte 35 Noroeste 0 1014.2 1.7 61
2019-05-03 21:00:00 18.3 24 Norte 39 Norte 0 1013.3 0.9 61
2019-05-03 20:00:00 18.8 26 Norte 37 Norte 0 1012.5 -0.1 64
2019-05-03 19:00:00 19.7 23 Norte 39 Norte 0 1012.5 -0.1 56
2019-05-03 18:00:00 20.6 24 Norte 42 Norte 0 1012.4 -0.5 53
2019-05-03 17:00:00 21.1 24 Noroeste 45 Noroeste 0 1012.6 -0.6 51
2019-05-03 16:00:00 22.2 28 Norte 46 Norte 0 1012.6 -0.5 52
2019-05-03 15:00:00 22.7 28 Noroeste 39 Noroeste 0 1012.9 -0.5 48
2019-05-03 14:00:00 22.2 28 Norte 41 Norte 0 1013.2 -0.1 51
2019-05-03 13:00:00 21.6 22 Noroeste 42 Noroeste 0 1013.1 0.1 51
2019-05-03 12:00:00 21.3 24 Norte 55 Noroeste 0 1013.4 0.9 53
2019-05-03 11:00:00 20.4 23 Norte 32 Norte 0 1013.3 1.4 58
2019-05-03 10:00:00 19.7 15 Norte 28 Norte 0 1013 1.5 60
2019-05-03 09:00:00 18.4 22 Norte 32 Noroeste 0 1012.5 1.3 65
2019-05-03 08:00:00 17.4 18 Noroeste 33 Norte 0 1011.9 0.8 71
2019-05-03 07:00:00 16.3 12 Norte 22 Norte 0 1011.5 0.3 73
2019-05-03 06:00:00 16.3 17 Norte 30 Noroeste 0 1011.2 -0.1 72
2019-05-03 05:00:00 16.7 20 Norte 30 Norte 0 1011.1 -0.9 73
2019-05-03 04:00:00 16.8 17 Noroeste 30 Noroeste 0 1011.2 -0.9 72
2019-05-03 03:00:00 17.1 25 Noroeste 37 Noroeste 0 1011.3 -1 73
2019-05-03 02:00:00 17.2 22 Noroeste 39 Noroeste 0 1012 -0.2 71
2019-05-03 01:00:00 17.3 26 Noroeste 45 Noroeste 0 1012.1 0.5 74
2019-05-03 00:00:00 17.5 28 Noroeste 41 Noroeste 0 1012.3 1.4 74
2019-05-02 23:00:00 17.5 19 Norte 35 Norte 0 1012.2 1.9 78
2019-05-02 22:00:00 17.6 22 Norte 46 Noroeste 0 1011.6 1.6 77
2019-05-02 21:00:00 18 17 Norte 42 Norte 0 1010.9 0.7 77
2019-05-02 20:00:00 18.9 28 Norte 48 Norte 0 1010.3 0.2 70
2019-05-02 19:00:00 20.2 31 Noroeste 46 Norte 0 1010 -0.6 64
2019-05-02 18:00:00 20.4 22 Noroeste 39 Norte 0 1010.2 -0.9 66
2019-05-02 17:00:00 21 26 Norte 41 Noroeste 0 1010.1 -1.4 60
2019-05-02 16:00:00 20.9 27 Noroeste 50 Norte 0 1010.6 -1 61
2019-05-02 15:00:00 20.1 26 Norte 41 Norte 0 1011.1 -0.6 64
2019-05-02 14:00:00 20.2 24 Norte 39 Norte 0 1011.5 0.1 62
2019-05-02 13:00:00 21 23 Norte 35 Norte 0 1011.6 0.7 61
2019-05-02 12:00:00 19.7 28 Norte 39 Noroeste 0 1011.7 1.3 66
2019-05-02 11:00:00 19.2 26 Norte 37 Norte 0 1011.4 1.4 64
2019-05-02 10:00:00 20 26 Norte 39 Norte 0 1010.9 1 60
2019-05-02 09:00:00 19 27 Norte 37 Norte 0 1010.4 0.6 66
2019-05-02 08:00:00 17.2 26 Norte 37 Norte 0 1010 0 80
2019-05-02 07:00:00 17.5 20 Norte 33 Norte 0 1009.9 -0.1 78
2019-05-02 06:00:00 17.4 18 Norte 35 Norte 0 1009.8 -0.3 74
2019-05-02 05:00:00 17.6 17 Norte 30 Norte 0 1010 -0.7 72
2019-05-02 04:00:00 17.8 17 Norte 32 Norte 0 1010 -1 71
2019-05-02 03:00:00 17.7 15 Norte 39 Norte 0 1010.1 -1.3 73
2019-05-02 02:00:00 17.4 24 Norte 37 Norte 0 1010.7 -0.6 77
2019-05-02 01:00:00 17.5 22 Norte 39 Norte 0 1011 -0.4 73
2019-05-02 00:00:00 17.6 20 Norte 45 Norte 0 1011.4 0.7 74
2019-05-01 23:00:00 17.7 22 Norte 39 Noroeste 0 1011.3 1.2 70
2019-05-01 22:00:00 17.9 19 Norte 39 Norte 0 1011.4 1.6 69
2019-05-01 21:00:00 18.4 27 Norte 46 Noroeste 0 1010.7 0.8 69
2019-05-01 20:00:00 18.8 34 Norte 50 Noroeste 0 1010.1 0.2 63
2019-05-01 19:00:00 20.1 30 Norte 55 Norte 0 1009.8 -0.8 59
2019-05-01 18:00:00 21.7 32 Norte 52 Norte 0 1009.9 -1.2 55
2019-05-01 17:00:00 21.9 34 Norte 52 Norte 0 1009.9 -1.8 56
2019-05-01 16:00:00 22.2 33 Norte 52 Noroeste 0 1010.6 -1.4 51
2019-05-01 15:00:00 22.6 36 Norte 55 Norte 0 1011.1 -0.9 51
2019-05-01 14:00:00 22.6 35 Norte 55 Norte 0 1011.7 0.6 51
2019-05-01 13:00:00 22.1 35 Norte 48 Norte 0 1012 1.9 56
2019-05-01 12:00:00 20.6 31 Norte 54 Norte 0 1012 2.6 62
2019-05-01 11:00:00 20.9 36 Norte 58 Norte 0 1011.1 1.7 60
2019-05-01 10:00:00 19.3 46 Noroeste 67 Noroeste 0 1010.1 1.1 66
2019-05-01 09:00:00 18.2 47 Noroeste 65 Noroeste 0 1009.4 0.8 74
2019-05-01 08:00:00 17.2 42 Noroeste 63 Norte 0 1009.4 0.9 76
2019-05-01 07:00:00 17 40 Noroeste 59 Noroeste 0 1009 0.6 79
2019-05-01 06:00:00 17.2 37 Noroeste 59 Noroeste 0 1008.6 -0.2 81
2019-05-01 05:00:00 17.2 40 Noroeste 59 Noroeste 0 1008.5 -1.1 81
2019-05-01 04:00:00 17.3 40 Norte 58 Norte 0 1008.4 -2.2 81
2019-05-01 03:00:00 17.5 37 Norte 55 Norte 0 1008.8 -2 81
2019-05-01 02:00:00 17.8 32 Norte 50 Norte 0 1009.6 -1.2 83
2019-05-01 01:00:00 17.9 26 Norte 46 Norte 0 1010.6 -0.1 83
2019-05-01 00:00:00 18.1 27 Norte 42 Norte 0 1010.8 0.6 85
2019-04-30 23:00:00 18.4 28 Norte 46 Norte 0 1010.8 1 84
2019-04-30 22:00:00 18.7 27 Norte 50 Noroeste 0 1010.7 1.2 82
2019-04-30 21:00:00 19.1 27 Norte 50 Norte 0 1010.2 0.7 80
2019-04-30 20:00:00 20.1 28 Norte 54 Norte 0 1009.8 0.3 77
2019-04-30 19:00:00 21.8 39 Norte 55 Norte 0 1009.5 -0.4 68
2019-04-30 18:00:00 23.1 42 Norte 58 Norte 0 1009.5 -1 63
2019-04-30 17:00:00 24.2 42 Norte 59 Norte 0 1009.5 -1.4 57
2019-04-30 16:00:00 25.4 41 Norte 58 Norte 0 1009.9 -1.7 55
2019-04-30 15:00:00 25.7 40 Norte 54 Norte 0 1010.5 -1.5 54
2019-04-30 14:00:00 25.5 38 Norte 50 Norte 0 1010.9 -0.9 54
2019-04-30 13:00:00 25.1 37 Norte 52 Norte 0 1011.6 -0.3 54
2019-04-30 12:00:00 24.3 36 Norte 55 Norte 0 1012 0.4 57
2019-04-30 11:00:00 22.7 41 Norte 59 Norte 0 1011.8 0.6 63
2019-04-30 10:00:00 21 39 Norte 52 Norte 0 1011.9 1.3 69
2019-04-30 09:00:00 19.4 36 Norte 52 Norte 0 1011.6 0.8 77
2019-04-30 08:00:00 18 29 Norte 50 Norte 0 1011.2 -0.1 84
2019-04-30 07:00:00 17.5 30 Norte 45 Noroeste 0 1010.6 -0.9 85
2019-04-30 06:00:00 17.3 27 Norte 37 Norte 0 1010.8 -0.6 87
2019-04-30 05:00:00 17.2 23 Norte 37 Noroeste 0 1011.3 -1.1 86
2019-04-30 04:00:00 17.3 22 Norte 41 Norte 0 1011.5 -1.1 86
2019-04-30 03:00:00 17.4 30 Norte 48 Noroeste 0 1011.4 -1.4 86
2019-04-30 02:00:00 17.4 27 Norte 48 Norte 0 1012.4 -0.7 87
2019-04-30 01:00:00 17.8 33 Norte 45 Norte 0 1012.6 -0.2 85
2019-04-30 00:00:00 18 29 Norte 41 Norte 0 1012.8 0.9 85
2019-04-29 23:00:00 18.4 23 Norte 41 Norte 0 1013.1 1.8 83
2019-04-29 22:00:00 18.7 30 Norte 45 Nordeste 0 1012.8 1.5 81
2019-04-29 21:00:00 19.1 30 Norte 46 Norte 0 1011.9 1 79
2019-04-29 20:00:00 20.2 31 Norte 50 Norte 0 1011.3 0.3 74
2019-04-29 19:00:00 21.6 35 Norte 52 Norte 0 1011.3 0 69
2019-04-29 18:00:00 23.2 35 Norte 48 Norte 0 1010.9 -1 64
2019-04-29 17:00:00 24.6 32 Norte 50 Noroeste 0 1011 -1.6 59
2019-04-29 16:00:00 25.1 30 Norte 42 Noroeste 0 1011.3 -1.6 56
2019-04-29 15:00:00 25 28 Norte 39 Norte 0 1011.9 -1.3 56
2019-04-29 14:00:00 24.2 24 Norte 41 Noroeste 0 1012.6 -0.6 59
2019-04-29 13:00:00 24 28 Norte 41 Norte 0 1012.9 0.1 60
2019-04-29 12:00:00 23.2 29 Norte 39 Norte 0 1013.2 0.7 61
2019-04-29 11:00:00 21.8 28 Norte 41 Noroeste 0 1013.2 1.1 65
2019-04-29 10:00:00 20.6 28 Norte 41 Noroeste 0 1012.8 0.8 70
2019-04-29 09:00:00 18.9 25 Noroeste 41 Norte 0 1012.5 0.8 76
2019-04-29 08:00:00 17.6 19 Noroeste 42 Noroeste 0 1012.1 0.5 81
2019-04-29 07:00:00 17.3 17 Noroeste -- -- -- 1012 0 82
2019-04-29 06:00:00 17.4 18 Oeste 33 Noroeste 0 1011.7 -1.2 80
2019-04-29 05:00:00 17.5 15 Oeste 35 Oeste 0 1011.6 -2.1 80
2019-04-29 04:00:00 17.5 21 Noroeste 35 Noroeste 0 1012 -2 81
2019-04-29 03:00:00 16.8 9 Norte 22 Norte 0 1012.9 -1.2 83
2019-04-29 02:00:00 17.4 11 Norte 18 Norte 0 1013.7 -0.1 81
2019-04-29 01:00:00 17.8 11 Norte 32 Norte 0 1014 0.9 81
2019-04-29 00:00:00 18.2 21 Norte 37 Norte 0 1014.1 1.6 79
2019-04-28 23:00:00 18.5 27 Norte 42 Noroeste 0 1013.8 1.8 78
2019-04-28 22:00:00 18.7 27 Norte 48 Noroeste 0 1013.1 1 78
2019-04-28 21:00:00 19.1 25 Norte 48 Norte 0 1012.5 0.4 77
2019-04-28 20:00:00 20.1 32 Norte 46 Norte 0 1012 -0.4 72
2019-04-28 19:00:00 21.6 32 Noroeste 41 Norte 0 1012.1 -0.4 65
2019-04-28 18:00:00 23.4 26 Noroeste 41 Noroeste 0 1012.1 -0.5 58
2019-04-28 17:00:00 24.5 15 Noroeste 37 Norte 0 1012.4 -0.6 56
2019-04-28 16:00:00 25.1 23 Norte 39 Noroeste 0 1012.5 -1.3 53
2019-04-28 15:00:00 25.7 27 Norte 39 Norte 0 1012.6 -1.3 50
2019-04-28 14:00:00 25.5 25 Norte 41 Noroeste 0 1013 -0.9 51
2019-04-28 13:00:00 24.5 25 Noroeste 45 Noroeste 0 1013.8 -0.2 54
2019-04-28 12:00:00 23.4 27 Norte 42 Noroeste 0 1013.9 0 57
2019-04-28 11:00:00 22.2 27 Norte 39 Norte 0 1013.9 0.2 63
2019-04-28 10:00:00 20.3 28 Norte 37 Norte 0 1014 0.7 70
2019-04-28 09:00:00 18.9 28 Norte 37 Norte 0 1013.9 0.7 76
2019-04-28 08:00:00 17.4 21 Norte 33 Norte 0 1013.7 0.5 81
2019-04-28 07:00:00 17.1 18 Norte 32 Norte 0 1013.3 -0.4 83
2019-04-28 06:00:00 17 18 Norte 33 Norte 0 1013.2 -1.3 84
2019-04-28 05:00:00 17.1 23 Norte 32 Norte 0 1013.2 -2.1 85
2019-04-28 04:00:00 17 18 Norte 28 Norte 0 1013.7 -2.1 86
2019-04-28 03:00:00 16.8 13 Norte 28 Norte 0 1014.5 -1.1 87
2019-04-28 02:00:00 17 20 Norte 28 Norte 0 1015.3 -0.1 86
2019-04-28 01:00:00 17.3 12 Nordeste 32 Norte 0 1015.8 0.5 84
2019-04-28 00:00:00 17.5 22 Norte 35 Norte 0 1015.6 0.9 83
2019-04-27 23:00:00 17.8 24 Norte 41 Norte 0 1015.4 1.2 81
2019-04-27 22:00:00 18.1 26 Norte 48 Norte 0 1015.3 1.2 80
2019-04-27 21:00:00 18.6 30 Norte 48 Norte 0 1014.7 0.5 77
2019-04-27 20:00:00 19.5 35 Norte 54 Norte 0 1014.2 -0.1 73
2019-04-27 19:00:00 21.1 37 Norte 52 Norte 0 1014.1 -0.5 66
2019-04-27 18:00:00 22 39 Norte 54 Norte 0 1014.2 -1 63
2019-04-27 17:00:00 23.1 39 Norte 54 Norte 0 1014.3 -1.3 58
2019-04-27 16:00:00 23.8 37 Norte 54 Norte 0 1014.6 -1.5 55
2019-04-27 15:00:00 23.7 38 Norte 52 Norte 0 1015.2 -1.1 56
2019-04-27 14:00:00 24 39 Norte 50 Norte 0 1015.6 -0.6 55
2019-04-27 13:00:00 23.6 32 Norte 45 Norte 0 1016.1 -0.1 55
2019-04-27 12:00:00 21.9 31 Norte 46 Norte 0 1016.3 0 61
2019-04-27 11:00:00 21.2 28 Norte 42 Norte 0 1016.2 0.2 62
2019-04-27 10:00:00 19.3 32 Norte 42 Norte 0 1016.2 0.6 69
2019-04-27 09:00:00 18.2 30 Norte 41 Norte 0 1016.3 0.6 73
2019-04-27 08:00:00 17.3 22 Norte 35 Norte 0 1016 0 75
2019-04-27 07:00:00 17 23 Norte 37 Norte 0 1015.6 -0.4 76
2019-04-27 06:00:00 16.5 24 Norte 41 Norte 0 1015.7 -0.9 79
2019-04-27 05:00:00 16.4 31 Norte 46 Norte 0 1016 -1.3 77
2019-04-27 04:00:00 16.5 34 Norte 54 Norte 0 1016 -1.9 77
2019-04-27 03:00:00 16.6 37 Norte 52 Norte 0 1016.6 -1.7 76
2019-04-27 02:00:00 16.7 30 Norte 50 Norte 0 1017.3 -1.4 75
2019-04-27 01:00:00 16.7 23 Norte 45 Norte 0 1017.9 -0.6 75
2019-04-27 00:00:00 17.1 37 Norte 50 Norte 0 1018.3 0.4 73
2019-04-26 23:00:00 17.3 35 Norte 54 Norte 0 1018.7 1.2 71
2019-04-26 22:00:00 17.5 36 Norte 50 Norte 0 1018.5 1.4 71
2019-04-26 21:00:00 18.2 35 Norte 54 Norte 0 1017.9 0.9 67
2019-04-26 20:00:00 19.1 36 Norte 54 Norte 0 1017.5 0.5 64
2019-04-26 19:00:00 20.4 35 Norte 58 Norte 0 1017.1 0 59
2019-04-26 18:00:00 21.4 39 Norte 54 Norte 0 1017 -0.5 59
2019-04-26 17:00:00 22.2 41 Norte 55 Norte 0 1017 -1 54
2019-04-26 16:00:00 22.6 41 Norte 58 Norte 0 1017.1 -1.5 53
2019-04-26 15:00:00 23.1 37 Norte 55 Norte 0 1017.5 -1.2 50
2019-04-26 14:00:00 23 39 Norte 52 Norte 0 1018 -0.6 51
2019-04-26 13:00:00 22.2 35 Norte 50 Norte 0 1018.6 0.1 54
2019-04-26 12:00:00 23.1 32 Norte 48 Nordeste 0 1018.7 0.2 50
2019-04-26 11:00:00 21.1 30 Norte 45 Nordeste 0 1018.6 0.3 58
2019-04-26 10:00:00 20.7 31 Norte 46 Norte 0 1018.5 0.5 58
2019-04-26 09:00:00 18.8 31 Norte 42 Norte 0 1018.5 0.6 74
2019-04-26 08:00:00 17.9 29 Norte 41 Norte 0 1018.3 0.5 70
2019-04-26 07:00:00 17.5 28 Norte 41 Norte 0 1018 0.1 79
2019-04-26 06:00:00 17.3 23 Norte 39 Norte 0 1017.9 -0.6 73
2019-04-26 05:00:00 17.1 26 Norte 46 Norte 0 1017.8 -1.3 72
2019-04-26 04:00:00 17.1 30 Norte 42 Norte 0 1017.9 -1.5 71
2019-04-26 03:00:00 17.6 30 Norte 45 Norte 0 1018.5 -1 77
2019-04-26 02:00:00 17.8 24 Norte 41 Norte 0 1019.1 -0.2 76
2019-04-26 01:00:00 17.6 26 Norte 39 Norte 0 1019.4 0.7 75
2019-04-26 00:00:00 17.8 27 Norte 37 Norte 0 1019.5 1.3 78